Time;durP1;ratioP1;P1;durP2;ratioP2;P2;SDS_P1;SDS_P2;PMS_P1;PMS_P2;Temp;Humidity;BMP_temperature;BMP_pressure;BME280_temperature;BME280_humidity;BME280_pressure;Samples;Min_cycle;Max_cycle;Signal;HPM_P1;HPM_P2
2024/01/03 05:05:57;;;;;;;0.30;0.30;;;8.80;99.90;;;;;;5648863;23;20626;-65
2024/01/03 05:08:22;;;;;;;0.30;0.30;;;8.90;99.90;;;;;;4936446;29;20225;-65
2024/01/03 05:10:48;;;;;;;0.30;0.30;;;8.90;99.90;;;;;;4936544;29;20280;-65
2024/01/03 05:13:13;;;;;;;0.27;0.27;;;8.90;99.90;;;;;;4936663;29;20177;-64
2024/01/03 05:15:39;;;;;;;0.30;0.27;;;8.90;99.90;;;;;;4936117;29;20185;-65
2024/01/03 05:18:04;;;;;;;0.30;0.30;;;8.90;99.90;;;;;;4936636;29;20206;-65
2024/01/03 05:20:30;;;;;;;0.30;0.30;;;8.90;99.90;;;;;;4935150;29;20169;-65
2024/01/03 05:22:55;;;;;;;0.50;0.50;;;8.90;99.90;;;;;;4936428;29;20533;-65
2024/01/03 05:25:21;;;;;;;0.30;0.30;;;8.90;99.90;;;;;;4936061;29;20213;-65
2024/01/03 05:27:46;;;;;;;0.30;0.20;;;8.80;99.90;;;;;;4936377;29;20174;-65
2024/01/03 05:30:12;;;;;;;0.30;0.30;;;8.80;99.90;;;;;;4936459;29;20197;-65
2024/01/03 05:32:38;;;;;;;0.30;0.30;;;8.80;99.90;;;;;;4936577;29;20205;-65
2024/01/03 05:35:04;;;;;;;0.30;0.30;;;8.80;99.90;;;;;;4935528;29;20409;-66
2024/01/03 05:37:30;;;;;;;0.30;0.30;;;8.90;99.90;;;;;;4934531;29;20188;-64
2024/01/03 05:39:55;;;;;;;0.30;0.30;;;8.90;99.90;;;;;;4936418;29;20637;-65
2024/01/03 05:42:23;;;;;;;0.30;0.30;;;8.90;99.90;;;;;;4936219;29;20216;-65
2024/01/03 05:44:48;;;;;;;0.30;0.30;;;8.90;99.90;;;;;;4935930;29;20256;-65
2024/01/03 05:47:14;;;;;;;0.30;0.30;;;8.80;99.90;;;;;;4935979;29;20260;-64
2024/01/03 05:49:39;;;;;;;0.40;0.40;;;8.80;99.90;;;;;;4936073;29;20217;-65
2024/01/03 05:52:05;;;;;;;0.30;0.30;;;8.80;99.90;;;;;;4936185;29;20712;-65
2024/01/03 05:54:32;;;;;;;0.30;0.30;;;8.90;99.90;;;;;;4935874;29;20173;-66
2024/01/03 05:57:00;;;;;;;0.30;0.30;;;8.90;99.90;;;;;;4936110;29;20187;-66
2024/01/03 05:59:25;;;;;;;0.30;0.30;;;8.90;99.90;;;;;;4936101;29;20177;-66
2024/01/03 06:01:51;;;;;;;0.30;0.30;;;8.90;99.90;;;;;;4935993;29;20181;-65
2024/01/03 06:04:17;;;;;;;0.30;0.30;;;9.00;99.90;;;;;;4934434;29;20181;-65
2024/01/03 06:06:42;;;;;;;0.30;0.30;;;9.20;99.90;;;;;;4934547;29;20208;-64
2024/01/03 06:09:08;;;;;;;0.30;0.20;;;9.30;99.90;;;;;;4945993;28;20176;-65
2024/01/03 06:11:35;;;;;;;0.30;0.20;;;9.40;99.90;;;;;;4958075;28;20211;-65
2024/01/03 06:14:00;;;;;;;0.30;0.30;;;9.50;99.90;;;;;;4958549;28;20216;-65
2024/01/03 06:16:26;;;;;;;0.30;0.30;;;9.50;99.90;;;;;;4939497;29;20202;-65
2024/01/03 06:18:51;;;;;;;0.40;0.40;;;9.60;99.90;;;;;;4939673;29;20260;-65
2024/01/03 06:21:18;;;;;;;0.30;0.30;;;9.70;99.90;;;;;;4939687;29;20181;-65
2024/01/03 06:23:43;;;;;;;0.30;0.30;;;9.70;99.90;;;;;;4938401;29;20177;-64
2024/01/03 06:26:09;;;;;;;0.30;0.30;;;9.90;99.90;;;;;;4939083;29;20606;-64
2024/01/03 06:28:35;;;;;;;0.30;0.30;;;10.00;99.90;;;;;;4939355;29;20176;-66
2024/01/03 06:31:03;;;;;;;0.30;0.30;;;10.00;99.90;;;;;;4952887;29;20208;-65
2024/01/03 06:33:29;;;;;;;0.30;0.30;;;10.10;99.90;;;;;;4958753;29;20169;-65
2024/01/03 06:35:54;;;;;;;0.30;0.30;;;10.20;99.90;;;;;;4956840;29;20687;-64
2024/01/03 06:38:20;;;;;;;0.30;0.30;;;10.20;99.90;;;;;;4957302;29;20212;-65
2024/01/03 06:40:46;;;;;;;0.30;0.30;;;10.30;99.90;;;;;;4958462;29;20223;-65
2024/01/03 06:43:11;;;;;;;0.30;0.30;;;10.30;99.90;;;;;;4958415;29;20535;-64
2024/01/03 06:45:37;;;;;;;0.30;0.20;;;10.30;99.90;;;;;;4940595;29;20206;-65
2024/01/03 06:48:02;;;;;;;0.27;0.27;;;10.30;99.90;;;;;;4939117;29;20176;-65
2024/01/03 06:50:28;;;;;;;0.30;0.30;;;10.30;99.90;;;;;;4939065;29;20179;-66
2024/01/03 06:52:54;;;;;;;0.30;0.27;;;10.30;99.90;;;;;;4939014;29;20183;-66
2024/01/03 06:55:19;;;;;;;0.30;0.30;;;10.30;99.90;;;;;;4938322;29;20928;-63
2024/01/03 06:57:45;;;;;;;0.30;0.20;;;10.30;99.90;;;;;;4938802;29;20176;-65
2024/01/03 07:00:11;;;;;;;0.30;0.30;;;10.20;99.90;;;;;;4945000;29;20176;-63
2024/01/03 07:02:37;;;;;;;0.30;0.30;;;10.30;99.90;;;;;;4958139;28;20483;-65
2024/01/03 07:05:03;;;;;;;0.30;0.30;;;10.30;99.90;;;;;;4957422;29;20273;-65
2024/01/03 07:07:28;;;;;;;0.30;0.20;;;10.20;99.90;;;;;;4957833;28;20276;-65
2024/01/03 07:09:54;;;;;;;0.30;0.20;;;10.20;99.90;;;;;;4957953;29;20186;-64
2024/01/03 07:12:20;;;;;;;0.30;0.20;;;10.20;99.90;;;;;;4957776;29;20197;-65
2024/01/03 07:14:45;;;;;;;0.30;0.20;;;10.20;99.90;;;;;;4950640;28;20178;-64
2024/01/03 07:17:11;;;;;;;0.40;0.40;;;10.10;99.90;;;;;;4938526;29;20199;-65
2024/01/03 07:19:36;;;;;;;0.30;0.30;;;10.10;99.90;;;;;;4938201;29;20234;-64
2024/01/03 07:22:02;;;;;;;0.30;0.30;;;10.10;99.90;;;;;;4938012;29;20179;-65
2024/01/03 07:24:28;;;;;;;0.30;0.30;;;10.10;99.90;;;;;;4938161;29;20185;-65
2024/01/03 07:26:53;;;;;;;0.30;0.20;;;10.10;99.90;;;;;;4938160;29;20205;-65
2024/01/03 07:29:19;;;;;;;0.37;0.37;;;10.10;99.90;;;;;;4937188;29;20190;-66
2024/01/03 07:31:44;;;;;;;0.30;0.30;;;10.00;99.90;;;;;;4938161;29;20262;-67
2024/01/03 07:34:11;;;;;;;0.83;0.50;;;10.10;99.90;;;;;;4938100;29;20653;-63
2024/01/03 07:36:36;;;;;;;0.30;0.30;;;10.10;99.90;;;;;;4938016;29;20544;-66
2024/01/03 07:39:03;;;;;;;0.30;0.20;;;10.10;99.90;;;;;;4938381;29;20420;-66
2024/01/03 07:41:30;;;;;;;0.30;0.30;;;10.20;99.90;;;;;;4937903;29;20175;-64
2024/01/03 07:43:59;;;;;;;0.30;0.30;;;10.20;99.90;;;;;;4938115;29;20183;-66
2024/01/03 07:46:25;;;;;;;2.25;0.55;;;10.20;99.90;;;;;;4936878;29;20540;-65
2024/01/03 07:48:50;;;;;;;0.30;0.20;;;10.30;99.90;;;;;;4937971;29;20231;-65
2024/01/03 07:51:19;;;;;;;0.30;0.30;;;10.30;99.90;;;;;;4937872;29;20197;-65
2024/01/03 07:53:45;;;;;;;0.40;0.40;;;10.30;99.90;;;;;;4937879;29;20646;-65
2024/01/03 07:56:11;;;;;;;0.30;0.30;;;10.30;99.90;;;;;;4937309;29;20228;-64
2024/01/03 07:58:36;;;;;;;0.30;0.20;;;10.30;99.90;;;;;;4937484;29;20203;-64
2024/01/03 08:01:02;;;;;;;0.30;0.20;;;10.30;99.90;;;;;;4937969;29;20182;-64
2024/01/03 08:03:28;;;;;;;0.30;0.30;;;10.30;99.90;;;;;;4937645;29;20188;-65
2024/01/03 08:05:54;;;;;;;0.30;0.20;;;10.30;99.90;;;;;;4937215;29;20286;-65
2024/01/03 08:08:19;;;;;;;0.20;0.20;;;10.30;99.90;;;;;;4937615;29;20193;-66
2024/01/03 08:10:45;;;;;;;0.30;0.30;;;10.40;99.90;;;;;;4937555;29;20922;-64
2024/01/03 08:13:12;;;;;;;0.30;0.30;;;10.40;99.90;;;;;;4936024;29;20185;-64
2024/01/03 08:15:38;;;;;;;0.30;0.30;;;10.50;99.90;;;;;;4941081;29;20209;-64
2024/01/03 08:18:03;;;;;;;0.30;0.20;;;10.50;99.90;;;;;;4956531;29;20171;-64
2024/01/03 08:20:30;;;;;;;0.30;0.30;;;10.60;99.90;;;;;;4956498;29;20497;-64
2024/01/03 08:22:56;;;;;;;0.30;0.20;;;10.60;99.90;;;;;;4955878;29;20420;-65
2024/01/03 08:25:23;;;;;;;0.30;0.30;;;10.70;99.90;;;;;;4955432;29;20438;-65
2024/01/03 08:27:48;;;;;;;0.30;0.30;;;10.80;99.90;;;;;;4955095;28;20225;-64
2024/01/03 08:30:14;;;;;;;0.30;0.30;;;10.90;99.90;;;;;;4936837;29;20417;-66
2024/01/03 08:32:41;;;;;;;0.30;0.20;;;11.00;99.90;;;;;;4935395;29;20735;-66
2024/01/03 08:35:09;;;;;;;0.30;0.30;;;11.10;99.90;;;;;;4936639;29;20172;-64
2024/01/03 08:37:35;;;;;;;0.30;0.30;;;11.10;99.90;;;;;;4944309;29;20695;-66
2024/01/03 08:40:01;;;;;;;0.30;0.20;;;11.10;99.90;;;;;;4942245;29;20451;-69
2024/01/03 08:42:27;;;;;;;0.30;0.30;;;11.20;99.90;;;;;;4936447;29;20293;-64
2024/01/03 08:44:53;;;;;;;0.30;0.30;;;11.20;99.90;;;;;;4936842;29;20842;-65
2024/01/03 08:47:18;;;;;;;0.30;0.20;;;11.20;99.90;;;;;;4926245;29;20266;-66
2024/01/03 08:49:45;;;;;;;0.30;0.30;;;11.20;99.90;;;;;;4918539;29;20715;-66
2024/01/03 08:52:11;;;;;;;0.30;0.30;;;11.30;99.90;;;;;;4917619;29;20436;-67
2024/01/03 08:54:36;;;;;;;0.30;0.30;;;11.30;99.90;;;;;;4924127;29;20431;-64
2024/01/03 08:57:04;;;;;;;0.30;0.30;;;11.30;99.90;;;;;;4936203;29;20650;-65
2024/01/03 08:59:29;;;;;;;0.30;0.30;;;11.30;99.90;;;;;;4936474;29;20227;-69
2024/01/03 09:01:58;;;;;;;0.30;0.30;;;11.40;99.90;;;;;;4935136;29;20433;-65
2024/01/03 09:04:23;;;;;;;0.30;0.30;;;11.40;99.90;;;;;;4941255;29;20175;-63
2024/01/03 09:06:51;;;;;;;0.30;0.30;;;11.50;99.90;;;;;;4955167;29;20435;-67
2024/01/03 09:09:17;;;;;;;0.30;0.20;;;11.50;99.90;;;;;;4955557;28;20513;-67
2024/01/03 09:11:42;;;;;;;0.30;0.30;;;11.60;99.90;;;;;;4955520;29;20459;-67
2024/01/03 09:14:08;;;;;;;0.30;0.30;;;11.60;99.90;;;;;;4955274;28;20190;-67
2024/01/03 09:16:34;;;;;;;0.30;0.30;;;11.70;99.90;;;;;;4954329;29;20227;-66
2024/01/03 09:18:59;;;;;;;0.30;0.30;;;11.70;99.90;;;;;;4949434;29;20219;-66
2024/01/03 09:21:26;;;;;;;0.30;0.30;;;11.70;99.90;;;;;;4936746;29;20283;-66
2024/01/03 09:23:52;;;;;;;0.30;0.30;;;11.80;99.90;;;;;;4954730;28;20202;-69
2024/01/03 09:26:23;;;;;;;0.30;0.20;;;11.70;99.90;;;;;;4954273;29;20467;-65
2024/01/03 09:28:49;;;;;;;0.30;0.20;;;11.70;99.90;;;;;;4953492;29;20183;-67
2024/01/03 09:31:15;;;;;;;0.30;0.20;;;11.60;99.90;;;;;;4954227;29;20969;-66
2024/01/03 09:33:40;;;;;;;0.30;0.20;;;11.60;99.90;;;;;;4953641;28;20926;-66
2024/01/03 09:36:15;;;;;;;0.30;0.30;;;11.40;99.90;;;;;;4953253;29;20446;-66
2024/01/03 09:38:41;;;;;;;0.30;0.30;;;11.40;99.90;;;;;;4954931;28;20577;-67
2024/01/03 09:41:12;;;;;;;0.30;0.30;;;11.40;99.90;;;;;;4955026;29;20420;-66
2024/01/03 09:43:40;;;;;;;0.30;0.20;;;11.40;99.90;;;;;;4954575;28;20179;-67
2024/01/03 09:46:06;;;;;;;0.30;0.30;;;11.40;99.90;;;;;;4954815;28;20430;-64
2024/01/03 09:48:31;;;;;;;0.30;0.30;;;11.40;99.90;;;;;;4947201;29;20490;-67
2024/01/03 09:50:58;;;;;;;0.30;0.30;;;11.50;99.90;;;;;;4937343;29;20250;-67
2024/01/03 09:53:25;;;;;;;0.30;0.30;;;11.50;99.90;;;;;;4935846;29;20525;-65
2024/01/03 09:55:52;;;;;;;0.30;0.30;;;11.50;99.90;;;;;;4935459;29;20473;-67
2024/01/03 09:58:19;;;;;;;0.53;0.50;;;11.60;99.90;;;;;;4934629;29;20440;-66
2024/01/03 10:00:45;;;;;;;0.30;0.20;;;11.70;99.90;;;;;;4935964;29;20408;-66
2024/01/03 10:03:11;;;;;;;0.30;0.20;;;11.70;99.90;;;;;;4935790;29;20409;-66
2024/01/03 10:05:37;;;;;;;0.30;0.30;;;11.80;99.90;;;;;;4935605;29;20318;-67
2024/01/03 10:08:17;;;;;;;0.30;0.30;;;11.80;99.90;;;;;;4935733;29;20450;-66
2024/01/03 10:10:46;;;;;;;0.30;0.30;;;11.90;99.90;;;;;;4935408;29;20503;-67
2024/01/03 10:13:18;;;;;;;0.30;0.20;;;12.00;99.90;;;;;;4935478;29;20448;-67
2024/01/03 10:15:46;;;;;;;0.30;0.30;;;12.10;99.90;;;;;;4935254;29;20432;-66
2024/01/03 10:18:14;;;;;;;0.30;0.30;;;12.10;99.90;;;;;;4935566;29;20875;-66
2024/01/03 10:20:40;;;;;;;0.30;0.30;;;12.20;99.90;;;;;;4935547;29;20409;-67
2024/01/03 10:23:09;;;;;;;0.30;0.30;;;12.20;99.90;;;;;;4934423;29;20770;-64
2024/01/03 10:25:35;;;;;;;0.30;0.30;;;12.20;99.90;;;;;;4935174;29;20215;-66
2024/01/03 10:28:02;;;;;;;0.30;0.30;;;12.30;99.90;;;;;;4935680;29;20416;-66
2024/01/03 10:30:29;;;;;;;0.30;0.30;;;12.30;99.90;;;;;;4935635;29;20405;-67
2024/01/03 10:33:05;;;;;;;0.30;0.20;;;12.30;99.90;;;;;;4935604;29;20460;-66
2024/01/03 10:35:43;;;;;;;0.30;0.20;;;12.40;99.90;;;;;;4934014;29;20411;-66
2024/01/03 10:38:09;;;;;;;0.30;0.30;;;12.40;99.90;;;;;;4934194;29;20425;-66
2024/01/03 10:40:39;;;;;;;0.30;0.20;;;12.40;99.90;;;;;;4934124;29;20781;-67
2024/01/03 10:43:08;;;;;;;0.30;0.30;;;12.40;99.90;;;;;;4935495;29;20436;-68
2024/01/03 10:45:33;;;;;;;0.30;0.30;;;12.40;99.90;;;;;;4934819;29;20420;-66
2024/01/03 10:47:59;;;;;;;0.30;0.27;;;12.50;99.90;;;;;;4935396;29;20408;-67
2024/01/03 10:50:25;;;;;;;0.30;0.30;;;12.50;99.90;;;;;;4935576;29;20506;-67
2024/01/03 10:52:57;;;;;;;0.40;0.40;;;12.60;99.90;;;;;;4935340;29;20208;-67
2024/01/03 10:55:33;;;;;;;0.30;0.30;;;12.70;99.90;;;;;;4936964;29;20437;-67
2024/01/03 10:58:04;;;;;;;0.30;0.20;;;12.70;99.90;;;;;;4938885;29;20905;-67
2024/01/03 11:00:59;;;;;;;0.30;0.30;;;12.80;99.90;;;;;;4937476;29;20414;-69
2024/01/03 11:03:29;;;;;;;0.30;0.30;;;12.80;99.90;;;;;;4938731;29;20380;-67
2024/01/03 11:06:03;;;;;;;0.30;0.30;;;12.80;99.90;;;;;;4938195;29;21010;-66
2024/01/03 11:08:41;;;;;;;0.30;0.20;;;12.70;99.90;;;;;;4938513;29;20488;-66
2024/01/03 11:11:08;;;;;;;0.30;0.20;;;12.60;99.90;;;;;;4938807;29;20463;-67
2024/01/03 11:13:34;;;;;;;0.30;0.30;;;12.70;99.90;;;;;;4938497;29;20599;-66
2024/01/03 11:16:02;;;;;;;0.30;0.20;;;12.80;99.90;;;;;;4936827;29;20504;-67
2024/01/03 11:18:58;;;;;;;0.30;0.30;;;12.90;99.90;;;;;;4937128;29;20428;-67
2024/01/03 11:21:25;;;;;;;0.30;0.20;;;12.90;99.90;;;;;;4930140;29;20425;-67
2024/01/03 11:23:51;;;;;;;0.30;0.30;;;12.80;99.90;;;;;;4936945;29;20515;-66
2024/01/03 11:26:16;;;;;;;0.83;0.83;;;12.80;99.90;;;;;;4938128;29;20543;-66
2024/01/03 11:28:48;;;;;;;0.30;0.30;;;12.80;99.90;;;;;;4938340;29;20890;-66
2024/01/03 11:31:15;;;;;;;0.30;0.30;;;12.80;99.90;;;;;;4938430;29;20236;-67
2024/01/03 11:33:42;;;;;;;0.30;0.20;;;12.80;99.90;;;;;;4938202;29;20418;-66
2024/01/03 11:36:08;;;;;;;0.30;0.20;;;12.80;99.90;;;;;;4937850;29;20772;-66
2024/01/03 11:38:41;;;;;;;0.30;0.30;;;12.80;99.90;;;;;;4938217;29;20420;-66
2024/01/03 11:41:08;;;;;;;0.30;0.30;;;12.90;99.90;;;;;;4938040;29;20185;-66
2024/01/03 11:43:34;;;;;;;0.30;0.20;;;12.90;99.90;;;;;;4938240;29;20733;-66
2024/01/03 11:46:10;;;;;;;0.30;0.20;;;13.00;99.90;;;;;;4937824;29;20441;-66
2024/01/03 11:48:39;;;;;;;0.30;0.30;;;13.00;99.90;;;;;;4938067;29;20199;-66
2024/01/03 11:51:25;;;;;;;0.30;0.30;;;13.00;99.90;;;;;;4938014;29;20463;-68
2024/01/03 11:53:52;;;;;;;0.30;0.30;;;12.90;99.90;;;;;;4938140;29;20416;-69
2024/01/03 11:56:33;;;;;;;0.30;0.20;;;12.90;99.90;;;;;;4920626;29;20456;-67
2024/01/03 11:59:02;;;;;;;0.30;0.30;;;12.90;99.90;;;;;;4936622;29;20949;-67
2024/01/03 12:01:28;;;;;;;0.30;0.30;;;12.90;99.90;;;;;;4937903;29;20413;-67
2024/01/03 12:04:07;;;;;;;0.30;0.20;;;12.90;99.90;;;;;;4937861;29;20773;-66
2024/01/03 12:06:33;;;;;;;0.30;0.30;;;12.90;99.90;;;;;;4937174;29;20606;-65
2024/01/03 12:08:59;;;;;;;0.30;0.30;;;12.90;99.90;;;;;;4937544;29;20440;-66
2024/01/03 12:11:25;;;;;;;0.30;0.30;;;12.90;99.90;;;;;;4937725;29;20267;-66
2024/01/03 12:13:51;;;;;;;0.30;0.30;;;13.00;99.90;;;;;;4937779;29;20257;-66
2024/01/03 12:16:16;;;;;;;0.30;0.20;;;13.00;99.90;;;;;;4937185;29;20189;-67
2024/01/03 12:18:50;;;;;;;0.30;0.30;;;13.00;99.90;;;;;;4936355;29;20425;-67
2024/01/03 12:21:16;;;;;;;0.40;0.40;;;12.90;99.90;;;;;;4937262;29;20495;-67
2024/01/03 12:23:59;;;;;;;0.30;0.20;;;12.90;99.90;;;;;;4937344;29;20413;-66
2024/01/03 12:26:25;;;;;;;0.30;0.20;;;12.90;99.90;;;;;;4937285;29;20873;-67
2024/01/03 12:28:53;;;;;;;0.30;0.20;;;12.90;99.90;;;;;;4937242;29;20452;-66
2024/01/03 12:31:20;;;;;;;0.30;0.30;;;12.90;99.90;;;;;;4937113;29;20427;-67
2024/01/03 12:33:46;;;;;;;0.30;0.20;;;12.90;99.90;;;;;;4937163;29;20380;-65
2024/01/03 12:36:12;;;;;;;0.30;0.30;;;13.00;99.90;;;;;;4936901;29;20916;-66
2024/01/03 12:38:40;;;;;;;0.30;0.20;;;13.00;99.90;;;;;;4937470;29;20496;-67
2024/01/03 12:41:06;;;;;;;0.30;0.30;;;13.10;99.90;;;;;;4937270;29;20406;-68
2024/01/03 12:43:33;;;;;;;0.30;0.30;;;13.10;99.90;;;;;;4936553;29;20789;-67
2024/01/03 12:45:59;;;;;;;0.30;0.30;;;13.10;99.90;;;;;;4935040;29;20476;-67
2024/01/03 12:48:25;;;;;;;0.30;0.30;;;13.10;99.90;;;;;;4935639;29;20425;-66
2024/01/03 12:50:52;;;;;;;0.30;0.30;;;13.20;99.90;;;;;;4936819;29;20484;-66
2024/01/03 12:53:19;;;;;;;0.30;0.30;;;13.10;99.90;;;;;;4937035;29;20260;-66
2024/01/03 12:55:46;;;;;;;0.30;0.20;;;13.10;99.90;;;;;;4936244;29;20786;-66
2024/01/03 12:58:11;;;;;;;0.30;0.30;;;13.10;99.90;;;;;;4936613;29;20409;-65
2024/01/03 13:00:37;;;;;;;0.30;0.30;;;13.10;99.90;;;;;;4936843;29;20811;-66
2024/01/03 13:03:02;;;;;;;0.30;0.30;;;13.20;99.90;;;;;;4936734;29;20216;-66
2024/01/03 13:05:28;;;;;;;0.30;0.30;;;13.10;99.90;;;;;;4936345;29;20223;-67
2024/01/03 13:07:54;;;;;;;0.30;0.20;;;13.10;99.90;;;;;;4935083;29;20661;-63
2024/01/03 13:10:20;;;;;;;0.40;0.40;;;13.00;99.90;;;;;;4935039;29;20184;-65
2024/01/03 13:12:50;;;;;;;0.30;0.30;;;12.90;99.90;;;;;;4936249;29;20233;-65
2024/01/03 13:15:16;;;;;;;0.30;0.30;;;12.80;99.90;;;;;;4936010;29;20443;-66
2024/01/03 13:17:42;;;;;;;0.30;0.20;;;12.80;99.90;;;;;;4936028;29;20744;-64
2024/01/03 13:20:08;;;;;;;0.30;0.30;;;12.80;99.90;;;;;;4936129;29;20180;-66
2024/01/03 13:22:33;;;;;;;0.30;0.30;;;12.80;99.90;;;;;;4936523;29;20270;-66
2024/01/03 13:24:59;;;;;;;0.30;0.30;;;12.80;99.90;;;;;;4935948;29;20453;-66
2024/01/03 13:27:25;;;;;;;0.30;0.30;;;12.80;99.90;;;;;;4935005;29;20185;-66
2024/01/03 13:29:51;;;;;;;0.30;0.30;;;12.90;99.90;;;;;;4936265;29;20192;-66
2024/01/03 13:32:16;;;;;;;0.30;0.20;;;12.80;99.90;;;;;;4936051;29;20217;-66
2024/01/03 13:34:42;;;;;;;0.30;0.30;;;12.80;99.90;;;;;;4936000;29;20437;-65
2024/01/03 13:37:08;;;;;;;0.30;0.20;;;12.80;99.90;;;;;;4936296;29;20248;-65
2024/01/03 13:39:33;;;;;;;0.30;0.30;;;12.80;99.90;;;;;;4936260;29;20409;-65
2024/01/03 13:41:59;;;;;;;0.30;0.30;;;12.80;99.90;;;;;;4935325;29;20182;-66
2024/01/03 13:44:25;;;;;;;0.30;0.20;;;12.80;99.90;;;;;;4935859;29;20237;-66
2024/01/03 13:46:53;;;;;;;0.30;0.30;;;12.70;99.90;;;;;;4934569;29;20207;-66
2024/01/03 13:49:20;;;;;;;0.30;0.20;;;12.70;99.90;;;;;;4936067;29;20177;-66
2024/01/03 13:51:46;;;;;;;0.40;0.40;;;12.60;99.90;;;;;;4935904;29;20834;-67
2024/01/03 13:54:11;;;;;;;0.30;0.30;;;12.50;99.90;;;;;;4935746;29;20423;-65
2024/01/03 13:56:37;;;;;;;0.30;0.30;;;12.50;99.90;;;;;;4935741;29;20489;-64
2024/01/03 13:59:03;;;;;;;0.30;0.20;;;12.40;99.90;;;;;;4936183;29;20507;-65
2024/01/03 14:01:30;;;;;;;0.30;0.30;;;12.30;99.90;;;;;;4935839;29;20192;-65
2024/01/03 14:03:55;;;;;;;0.30;0.30;;;12.20;99.90;;;;;;4935715;29;20657;-66
2024/01/03 14:06:21;;;;;;;0.30;0.30;;;12.00;99.90;;;;;;4935122;29;20511;-66
2024/01/03 14:08:47;;;;;;;0.30;0.20;;;11.90;99.90;;;;;;4935269;29;20187;-65
2024/01/03 14:11:14;;;;;;;0.30;0.30;;;11.90;99.90;;;;;;4935446;29;20886;-66
2024/01/03 14:13:40;;;;;;;0.30;0.30;;;11.90;99.90;;;;;;4935442;29;20687;-65
2024/01/03 14:16:07;;;;;;;0.30;0.30;;;11.80;99.90;;;;;;4934097;29;20439;-66
2024/01/03 14:18:33;;;;;;;0.30;0.30;;;11.80;99.90;;;;;;4935571;29;20404;-66
2024/01/03 14:21:01;;;;;;;0.30;0.30;;;11.80;99.90;;;;;;4950386;29;20443;-65
2024/01/03 14:23:26;;;;;;;0.30;0.20;;;11.70;99.90;;;;;;4935531;29;20496;-66
2024/01/03 14:25:53;;;;;;;0.30;0.23;;;11.70;99.90;;;;;;4933859;29;20543;-66
2024/01/03 14:28:19;;;;;;;0.30;0.30;;;11.60;99.90;;;;;;4935476;29;20178;-66
2024/01/03 14:30:46;;;;;;;0.30;0.30;;;11.60;99.90;;;;;;4938076;29;20416;-65
2024/01/03 14:33:12;;;;;;;0.30;0.30;;;11.40;99.90;;;;;;4939034;29;20408;-65
2024/01/03 14:35:38;;;;;;;0.30;0.30;;;11.30;99.90;;;;;;4938554;29;20478;-66
2024/01/03 14:38:03;;;;;;;0.30;0.30;;;11.30;99.90;;;;;;4938713;29;20407;-65
2024/01/03 14:40:32;;;;;;;0.30;0.30;;;11.20;99.90;;;;;;4938931;29;20493;-65
2024/01/03 14:43:03;;;;;;;0.30;0.30;;;11.20;99.90;;;;;;4938908;29;20172;-65
2024/01/03 14:45:30;;;;;;;0.30;0.30;;;11.10;99.90;;;;;;4938814;29;20434;-65
2024/01/03 14:47:56;;;;;;;0.30;0.30;;;11.10;99.90;;;;;;4938163;29;20476;-65
2024/01/03 14:50:22;;;;;;;0.30;0.30;;;11.00;99.90;;;;;;4938593;29;20414;-65
2024/01/03 14:52:47;;;;;;;0.40;0.40;;;10.90;99.90;;;;;;4938686;29;20609;-65
2024/01/03 14:55:13;;;;;;;0.30;0.30;;;10.90;99.90;;;;;;4938376;29;20197;-66
2024/01/03 14:57:39;;;;;;;0.30;0.30;;;10.90;99.90;;;;;;4937128;29;20209;-66
2024/01/03 15:00:06;;;;;;;0.30;0.30;;;10.80;99.90;;;;;;4938856;29;20187;-66
2024/01/03 15:02:32;;;;;;;0.30;0.20;;;10.90;99.90;;;;;;4938819;29;20409;-65
2024/01/03 15:04:57;;;;;;;0.30;0.20;;;10.90;99.90;;;;;;4938188;29;20416;-64
2024/01/03 15:07:23;;;;;;;0.30;0.30;;;10.90;99.90;;;;;;4938246;29;20515;-66
2024/01/03 15:09:49;;;;;;;0.30;0.30;;;10.90;99.90;;;;;;4938415;29;20178;-66
2024/01/03 15:12:15;;;;;;;0.30;0.30;;;10.90;99.90;;;;;;4938392;29;20206;-62
2024/01/03 15:14:41;;;;;;;0.30;0.30;;;10.90;99.90;;;;;;4936943;29;20819;-62
2024/01/03 15:17:08;;;;;;;0.30;0.30;;;10.90;99.90;;;;;;4938363;29;20432;-63
2024/01/03 15:19:34;;;;;;;0.30;0.30;;;10.90;99.90;;;;;;4938189;29;20508;-68
2024/01/03 15:22:05;;;;;;;0.30;0.30;;;11.00;99.90;;;;;;4938343;29;20502;-64
2024/01/03 15:24:34;;;;;;;0.30;0.30;;;11.00;99.90;;;;;;4937864;29;20202;-61
2024/01/03 15:27:02;;;;;;;0.30;0.30;;;11.00;99.90;;;;;;4938267;29;20986;-65
2024/01/03 15:29:29;;;;;;;0.30;0.30;;;10.90;99.90;;;;;;4937761;29;20908;-65
2024/01/03 15:31:57;;;;;;;0.30;0.20;;;10.90;99.90;;;;;;4937968;29;20870;-64
2024/01/03 15:34:24;;;;;;;0.30;0.28;;;10.80;99.90;;;;;;4936332;29;20198;-64
2024/01/03 15:36:50;;;;;;;0.30;0.30;;;10.70;99.90;;;;;;4937532;29;20195;-65
2024/01/03 15:39:15;;;;;;;0.30;0.30;;;10.70;99.90;;;;;;4937888;29;20194;-66
2024/01/03 15:41:41;;;;;;;0.30;0.30;;;10.60;99.90;;;;;;4936964;29;20643;-64
2024/01/03 15:44:07;;;;;;;0.30;0.20;;;10.50;99.90;;;;;;4937709;29;20175;-64
2024/01/03 15:46:33;;;;;;;0.30;0.30;;;10.50;99.90;;;;;;4937594;29;20655;-64
2024/01/03 15:49:00;;;;;;;0.30;0.20;;;10.40;99.90;;;;;;4937288;29;20182;-65
2024/01/03 15:51:25;;;;;;;0.30;0.30;;;10.30;99.90;;;;;;4936981;29;20304;-64
2024/01/03 15:53:51;;;;;;;0.40;0.40;;;10.30;99.90;;;;;;4937070;29;20489;-65
2024/01/03 15:56:18;;;;;;;0.30;0.30;;;10.20;99.90;;;;;;4936546;29;20193;-64
2024/01/03 15:58:43;;;;;;;0.30;0.28;;;10.20;99.90;;;;;;4936768;29;20532;-65
2024/01/03 16:01:09;;;;;;;0.30;0.30;;;10.10;99.90;;;;;;4936968;29;20199;-64
2024/01/03 16:03:34;;;;;;;0.30;0.30;;;10.10;99.90;;;;;;4937013;29;20558;-63
2024/01/03 16:06:00;;;;;;;0.30;0.30;;;10.10;99.90;;;;;;4937040;29;20199;-65
2024/01/03 16:08:25;;;;;;;0.30;0.30;;;10.10;99.90;;;;;;4937168;29;20537;-66
2024/01/03 16:10:51;;;;;;;0.30;0.30;;;10.10;99.90;;;;;;4937245;29;20216;-64
2024/01/03 16:13:20;;;;;;;0.30;0.30;;;10.10;99.90;;;;;;4936026;29;20176;-66
2024/01/03 16:15:45;;;;;;;0.30;0.30;;;10.10;99.90;;;;;;4936566;29;20269;-64
2024/01/03 16:18:11;;;;;;;0.30;0.30;;;10.20;99.90;;;;;;4936793;29;20177;-62
2024/01/03 16:20:37;;;;;;;0.30;0.27;;;10.20;99.90;;;;;;4936909;29;20214;-63
2024/01/03 16:23:02;;;;;;;0.30;0.30;;;10.30;99.90;;;;;;4937169;29;20550;-64
2024/01/03 16:25:28;;;;;;;0.30;0.30;;;10.30;99.90;;;;;;4935509;29;20282;-62
2024/01/03 16:27:54;;;;;;;0.30;0.30;;;10.30;99.90;;;;;;4937269;29;20186;-62
2024/01/03 16:30:19;;;;;;;0.30;0.30;;;10.40;99.90;;;;;;4937128;29;20175;-63
2024/01/03 16:32:45;;;;;;;0.30;0.30;;;10.40;99.90;;;;;;4936789;29;20461;-62
2024/01/03 16:35:12;;;;;;;0.30;0.30;;;10.40;99.90;;;;;;4936597;29;20177;-63
2024/01/03 16:37:40;;;;;;;0.40;0.40;;;10.50;99.90;;;;;;4937112;29;20186;-64
2024/01/03 16:40:06;;;;;;;0.30;0.30;;;10.50;99.90;;;;;;4936687;29;20505;-63
2024/01/03 16:42:38;;;;;;;0.30;0.30;;;10.60;99.90;;;;;;4936417;29;20187;-63
2024/01/03 16:45:07;;;;;;;0.30;0.30;;;10.60;99.90;;;;;;4936649;29;20764;-64
2024/01/03 16:47:36;;;;;;;0.30;0.30;;;10.60;99.90;;;;;;4936907;29;20935;-62
2024/01/03 16:50:06;;;;;;;0.32;0.32;;;10.60;99.90;;;;;;4936588;29;20412;-61
2024/01/03 16:52:32;;;;;;;0.30;0.30;;;10.60;99.90;;;;;;4936382;29;20626;-63
2024/01/03 16:54:58;;;;;;;0.30;0.30;;;10.60;99.90;;;;;;4936317;29;20167;-62
2024/01/03 16:57:24;;;;;;;0.30;0.20;;;10.60;99.90;;;;;;4936301;29;20180;-65
2024/01/03 16:59:50;;;;;;;0.30;0.20;;;10.60;99.90;;;;;;4935982;29;20233;-65
2024/01/03 17:02:15;;;;;;;0.40;0.40;;;10.60;99.90;;;;;;4936316;29;20380;-68
2024/01/03 17:04:41;;;;;;;0.30;0.30;;;10.60;99.90;;;;;;4935779;29;20246;-66
2024/01/03 17:07:07;;;;;;;0.30;0.20;;;10.60;99.90;;;;;;4936167;29;20195;-64
2024/01/03 17:09:33;;;;;;;0.30;0.30;;;10.60;99.90;;;;;;4936256;29;20429;-63
2024/01/03 17:11:59;;;;;;;0.30;0.30;;;10.60;99.90;;;;;;4935244;29;20469;-64
2024/01/03 17:14:25;;;;;;;0.30;0.20;;;10.70;99.90;;;;;;4934891;29;20269;-66
2024/01/03 17:16:50;;;;;;;0.30;0.30;;;10.70;99.90;;;;;;4935730;29;20522;-66
2024/01/03 17:19:16;;;;;;;0.30;0.30;;;10.80;99.90;;;;;;4936225;29;20171;-64
2024/01/03 17:21:41;;;;;;;0.20;0.20;;;10.80;99.90;;;;;;4935970;29;20187;-63
2024/01/03 17:24:07;;;;;;;0.20;0.20;;;10.70;99.90;;;;;;4935824;29;20543;-65
2024/01/03 17:26:36;;;;;;;0.67;0.67;;;10.70;99.90;;;;;;4936052;29;20202;-63
2024/01/03 17:29:03;;;;;;;0.30;0.30;;;10.80;99.90;;;;;;4935875;29;20184;-65
2024/01/03 17:31:32;;;;;;;1.33;1.23;;;10.80;99.90;;;;;;4936003;29;20465;-63
2024/01/03 17:34:00;;;;;;;0.30;0.20;;;10.90;99.90;;;;;;4934520;29;20524;-65
2024/01/03 17:36:26;;;;;;;0.30;0.30;;;11.00;99.90;;;;;;4935995;29;20427;-64
2024/01/03 17:38:51;;;;;;;0.30;0.30;;;11.00;99.90;;;;;;4935624;29;20426;-66
2024/01/03 17:41:21;;;;;;;0.30;0.20;;;11.10;99.90;;;;;;4936330;29;20666;-63
2024/01/03 17:43:47;;;;;;;0.30;0.20;;;11.20;99.90;;;;;;4935649;29;20271;-64
2024/01/03 17:46:13;;;;;;;0.30;0.20;;;11.20;99.90;;;;;;4935485;29;20439;-62
2024/01/03 17:48:39;;;;;;;0.30;0.20;;;11.10;99.90;;;;;;4935574;29;20651;-64
2024/01/03 17:51:05;;;;;;;0.30;0.30;;;11.00;99.90;;;;;;4935853;29;20418;-64